sensor_id;sensor_type;location;lat;lon;timestamp;temperature;humidity
54946;DHT22;40846;44.788;20.486;2024-01-30T09:03:57;256.70;2073.60
54946;DHT22;40846;44.788;20.486;2024-01-30T09:11:19;333.50;1664.00
54946;DHT22;40846;44.788;20.486;2024-01-30T09:23:30;410.40;1408.00
54946;DHT22;40846;44.788;20.486;2024-01-30T09:25:56;410.50;1408.00
54946;DHT22;40846;44.788;20.486;2024-01-30T09:28:21;435.20;1356.80
54946;DHT22;40846;44.788;20.486;2024-01-30T09:55:13;384.30;1305.60
54946;DHT22;40846;44.788;20.486;2024-01-30T09:57:39;384.10;1356.80
54946;DHT22;40846;44.788;20.486;2024-01-30T11:11:51;281.60;1510.40
54946;DHT22;40846;44.788;20.486;2024-01-30T11:14:24;256.70;1484.80
54946;DHT22;40846;44.788;20.486;2024-01-30T11:16:51;256.50;1484.80
54946;DHT22;40846;44.788;20.486;2024-01-30T11:19:23;256.40;1484.80
54946;DHT22;40846;44.788;20.486;2024-01-30T11:21:51;256.40;1510.40
54946;DHT22;40846;44.788;20.486;2024-01-30T11:24:20;256.20;1510.40
54946;DHT22;40846;44.788;20.486;2024-01-30T11:26:58;256.30;1484.80
54946;DHT22;40846;44.788;20.486;2024-01-30T12:16:14;256.00;1510.40
54946;DHT22;40846;44.788;20.486;2024-01-30T12:21:06;256.00;1536.00
54946;DHT22;40846;44.788;20.486;2024-01-30T12:28:29;256.90;1459.20
54946;DHT22;40846;44.788;20.486;2024-01-30T12:31:04;256.70;1484.80
54946;DHT22;40846;44.788;20.486;2024-01-30T13:02:53;230.90;1484.80
54946;DHT22;40846;44.788;20.486;2024-01-30T13:05:19;230.80;1510.40
54946;DHT22;40846;44.788;20.486;2024-01-30T13:07:45;230.80;1510.40
54946;DHT22;40846;44.788;20.486;2024-01-30T13:10:10;230.90;1484.80
54946;DHT22;40846;44.788;20.486;2024-01-30T13:12:36;231.00;1484.80
54946;DHT22;40846;44.788;20.486;2024-01-30T13:15:04;231.10;1484.80
54946;DHT22;40846;44.788;20.486;2024-01-30T13:22:23;231.20;1408.00
54946;DHT22;40846;44.788;20.486;2024-01-30T13:24:50;231.00;1433.60
54946;DHT22;40846;44.788;20.486;2024-01-30T13:27:16;230.90;1459.20
54946;DHT22;40846;44.788;20.486;2024-01-30T13:29:43;230.90;1459.20
54946;DHT22;40846;44.788;20.486;2024-01-30T13:32:09;230.90;1459.20
54946;DHT22;40846;44.788;20.486;2024-01-30T14:55:13;179.80;1689.60
54946;DHT22;40846;44.788;20.486;2024-01-30T14:57:38;179.70;1689.60
54946;DHT22;40846;44.788;20.486;2024-01-30T15:00:05;179.60;1689.60
54946;DHT22;40846;44.788;20.486;2024-01-30T15:02:31;179.60;1715.20
54946;DHT22;40846;44.788;20.486;2024-01-30T15:04:57;179.50;1868.80
54946;DHT22;40846;44.788;20.486;2024-01-30T15:07:22;179.30;1740.80
54946;DHT22;40846;44.788;20.486;2024-01-30T15:09:48;179.30;1740.80
54946;DHT22;40846;44.788;20.486;2024-01-30T15:12:14;179.30;1740.80
54946;DHT22;40846;44.788;20.486;2024-01-30T15:14:40;179.40;1740.80
54946;DHT22;40846;44.788;20.486;2024-01-30T15:17:05;179.30;1740.80
54946;DHT22;40846;44.788;20.486;2024-01-30T15:19:31;179.20;1766.40
54946;DHT22;40846;44.788;20.486;2024-01-30T15:21:57;179.20;1766.40
54946;DHT22;40846;44.788;20.486;2024-01-30T15:24:22;179.40;1766.40
54946;DHT22;40846;44.788;20.486;2024-01-30T15:26:50;179.40;1766.40
54946;DHT22;40846;44.788;20.486;2024-01-30T15:29:17;179.40;1766.40
54946;DHT22;40846;44.788;20.486;2024-01-30T15:31:42;179.40;1766.40
54946;DHT22;40846;44.788;20.486;2024-01-30T15:34:08;179.40;1766.40
54946;DHT22;40846;44.788;20.486;2024-01-30T15:36:34;179.30;1792.00
54946;DHT22;40846;44.788;20.486;2024-01-30T15:39:00;179.20;1792.00
54946;DHT22;40846;44.788;20.486;2024-01-30T15:41:26;154.50;1792.00
54946;DHT22;40846;44.788;20.486;2024-01-30T15:43:52;154.50;1817.60
54946;DHT22;40846;44.788;20.486;2024-01-30T15:46:17;154.50;1817.60
54946;DHT22;40846;44.788;20.486;2024-01-30T15:51:10;154.50;1817.60
54946;DHT22;40846;44.788;20.486;2024-01-30T15:53:35;154.40;2252.80
54946;DHT22;40846;44.788;20.486;2024-01-30T15:56:01;154.40;1817.60
54946;DHT22;40846;44.788;20.486;2024-01-30T15:58:27;154.40;1817.60
54946;DHT22;40846;44.788;20.486;2024-01-30T16:00:53;154.30;1843.20
54946;DHT22;40846;44.788;20.486;2024-01-30T16:03:19;154.30;1843.20
54946;DHT22;40846;44.788;20.486;2024-01-30T16:05:45;154.20;1868.80
54946;DHT22;40846;44.788;20.486;2024-01-30T16:08:10;154.30;1868.80
54946;DHT22;40846;44.788;20.486;2024-01-30T16:10:36;154.40;1868.80
54946;DHT22;40846;44.788;20.486;2024-01-30T16:13:02;154.50;1868.80
54946;DHT22;40846;44.788;20.486;2024-01-30T16:15:28;179.20;1868.80
54946;DHT22;40846;44.788;20.486;2024-01-30T16:17:54;154.50;1868.80
54946;DHT22;40846;44.788;20.486;2024-01-30T16:20:19;154.40;1868.80
54946;DHT22;40846;44.788;20.486;2024-01-30T16:22:45;154.30;1868.80
54946;DHT22;40846;44.788;20.486;2024-01-30T16:25:11;154.40;1920.00
54946;DHT22;40846;44.788;20.486;2024-01-30T16:27:37;154.40;1894.40
54946;DHT22;40846;44.788;20.486;2024-01-30T16:30:03;154.40;1894.40
54946;DHT22;40846;44.788;20.486;2024-01-30T16:32:29;154.40;1894.40
54946;DHT22;40846;44.788;20.486;2024-01-30T16:34:57;154.40;1894.40
54946;DHT22;40846;44.788;20.486;2024-01-30T16:37:23;154.40;1920.00
54946;DHT22;40846;44.788;20.486;2024-01-30T16:39:51;154.30;1920.00
54946;DHT22;40846;44.788;20.486;2024-01-30T16:42:16;154.30;1920.00
54946;DHT22;40846;44.788;20.486;2024-01-30T16:44:43;154.30;1920.00
54946;DHT22;40846;44.788;20.486;2024-01-30T16:47:09;154.20;1920.00
54946;DHT22;40846;44.788;20.486;2024-01-30T16:49:35;154.20;1945.60
54946;DHT22;40846;44.788;20.486;2024-01-30T16:52:01;154.20;1945.60
54946;DHT22;40846;44.788;20.486;2024-01-30T16:54:28;154.20;1945.60
54946;DHT22;40846;44.788;20.486;2024-01-30T16:56:53;154.20;1945.60
54946;DHT22;40846;44.788;20.486;2024-01-30T16:59:19;154.10;1971.20
54946;DHT22;40846;44.788;20.486;2024-01-30T17:01:45;154.10;1971.20
54946;DHT22;40846;44.788;20.486;2024-01-30T17:04:16;153.90;1971.20
54946;DHT22;40846;44.788;20.486;2024-01-30T17:06:43;154.20;1996.80
54946;DHT22;40846;44.788;20.486;2024-01-30T17:09:09;154.00;2227.20
54946;DHT22;40846;44.788;20.486;2024-01-30T17:11:36;154.00;2048.00
54946;DHT22;40846;44.788;20.486;2024-01-30T17:14:02;153.90;1996.80
54946;DHT22;40846;44.788;20.486;2024-01-30T17:16:28;153.70;1996.80
54946;DHT22;40846;44.788;20.486;2024-01-30T17:18:53;128.90;2022.40
54946;DHT22;40846;44.788;20.486;2024-01-30T17:21:20;128.80;2048.00
54946;DHT22;40846;44.788;20.486;2024-01-30T17:23:46;128.90;2073.60
54946;DHT22;40846;44.788;20.486;2024-01-30T18:27:09;128.50;2227.20
54946;DHT22;40846;44.788;20.486;2024-01-30T18:29:36;128.30;2252.80
54946;DHT22;40846;44.788;20.486;2024-01-30T18:32:01;128.30;2252.80
54946;DHT22;40846;44.788;20.486;2024-01-30T18:34:27;128.20;2252.80
54946;DHT22;40846;44.788;20.486;2024-01-30T18:36:54;128.10;2252.80
54946;DHT22;40846;44.788;20.486;2024-01-30T18:39:29;128.10;2252.80
54946;DHT22;40846;44.788;20.486;2024-01-30T18:41:55;128.10;2252.80
54946;DHT22;40846;44.788;20.486;2024-01-30T18:46:47;128.00;2252.80
54946;DHT22;40846;44.788;20.486;2024-01-30T18:49:13;103.10;2227.20
54946;DHT22;40846;44.788;20.486;2024-01-30T18:51:39;103.10;2227.20
54946;DHT22;40846;44.788;20.486;2024-01-30T18:54:06;103.00;2227.20
54946;DHT22;40846;44.788;20.486;2024-01-30T18:56:32;103.10;2227.20
54946;DHT22;40846;44.788;20.486;2024-01-30T18:58:58;103.20;2227.20
54946;DHT22;40846;44.788;20.486;2024-01-30T19:01:24;103.20;2227.20
54946;DHT22;40846;44.788;20.486;2024-01-30T19:03:55;103.20;2227.20
54946;DHT22;40846;44.788;20.486;2024-01-30T19:06:21;103.20;2227.20
54946;DHT22;40846;44.788;20.486;2024-01-30T19:08:47;103.30;2227.20
54946;DHT22;40846;44.788;20.486;2024-01-30T19:11:19;103.30;2227.20
54946;DHT22;40846;44.788;20.486;2024-01-30T19:13:45;103.30;2227.20
54946;DHT22;40846;44.788;20.486;2024-01-30T19:16:11;128.00;2252.80
54946;DHT22;40846;44.788;20.486;2024-01-30T19:18:37;128.00;2252.80
54946;DHT22;40846;44.788;20.486;2024-01-30T19:21:03;128.00;2252.80
54946;DHT22;40846;44.788;20.486;2024-01-30T19:23:29;128.00;2252.80
54946;DHT22;40846;44.788;20.486;2024-01-30T19:25:55;128.10;2252.80
54946;DHT22;40846;44.788;20.486;2024-01-30T19:28:20;128.10;2252.80
54946;DHT22;40846;44.788;20.486;2024-01-30T19:30:46;128.00;2252.80
54946;DHT22;40846;44.788;20.486;2024-01-30T19:33:12;128.10;2252.80
54946;DHT22;40846;44.788;20.486;2024-01-30T19:35:38;128.10;2252.80
54946;DHT22;40846;44.788;20.486;2024-01-30T19:38:04;128.10;2252.80
54946;DHT22;40846;44.788;20.486;2024-01-30T19:40:30;128.10;2252.80
54946;DHT22;40846;44.788;20.486;2024-01-30T19:42:56;128.20;2252.80
54946;DHT22;40846;44.788;20.486;2024-01-30T19:45:22;128.10;2252.80
54946;DHT22;40846;44.788;20.486;2024-01-30T19:47:48;128.10;2252.80
54946;DHT22;40846;44.788;20.486;2024-01-30T19:50:20;128.00;2252.80
54946;DHT22;40846;44.788;20.486;2024-01-30T19:52:45;128.00;2252.80
54946;DHT22;40846;44.788;20.486;2024-01-30T19:55:12;103.30;2227.20
54946;DHT22;40846;44.788;20.486;2024-01-30T19:57:38;103.30;2227.20
54946;DHT22;40846;44.788;20.486;2024-01-30T20:00:05;103.30;2227.20
54946;DHT22;40846;44.788;20.486;2024-01-30T20:02:30;128.00;2252.80
54946;DHT22;40846;44.788;20.486;2024-01-30T20:04:57;128.00;2252.80
54946;DHT22;40846;44.788;20.486;2024-01-30T20:07:22;128.00;2252.80
54946;DHT22;40846;44.788;20.486;2024-01-30T20:09:51;103.30;2227.20
54946;DHT22;40846;44.788;20.486;2024-01-30T20:12:17;103.30;2227.20
54946;DHT22;40846;44.788;20.486;2024-01-30T20:14:43;103.30;2227.20
54946;DHT22;40846;44.788;20.486;2024-01-30T20:17:12;103.30;2227.20
54946;DHT22;40846;44.788;20.486;2024-01-30T20:19:49;103.30;2227.20
54946;DHT22;40846;44.788;20.486;2024-01-30T20:22:18;103.30;2227.20
54946;DHT22;40846;44.788;20.486;2024-01-30T20:24:44;103.20;2227.20
54946;DHT22;40846;44.788;20.486;2024-01-30T20:27:11;103.20;2227.20
54946;DHT22;40846;44.788;20.486;2024-01-30T20:29:37;103.20;2227.20
54946;DHT22;40846;44.788;20.486;2024-01-30T20:32:03;103.20;2227.20
54946;DHT22;40846;44.788;20.486;2024-01-30T20:34:29;103.30;2227.20
54946;DHT22;40846;44.788;20.486;2024-01-30T20:36:56;103.30;2227.20
54946;DHT22;40846;44.788;20.486;2024-01-30T20:39:21;103.20;2227.20
54946;DHT22;40846;44.788;20.486;2024-01-30T20:41:47;103.20;2227.20
54946;DHT22;40846;44.788;20.486;2024-01-30T20:44:14;103.20;2227.20
54946;DHT22;40846;44.788;20.486;2024-01-30T20:46:44;103.20;2227.20
54946;DHT22;40846;44.788;20.486;2024-01-30T20:49:10;103.20;2227.20
54946;DHT22;40846;44.788;20.486;2024-01-30T20:51:36;103.20;2227.20
54946;DHT22;40846;44.788;20.486;2024-01-30T20:54:02;103.20;2227.20
54946;DHT22;40846;44.788;20.486;2024-01-30T20:56:28;103.10;2227.20
54946;DHT22;40846;44.788;20.486;2024-01-30T20:58:54;103.10;2227.20
54946;DHT22;40846;44.788;20.486;2024-01-30T21:01:20;102.90;2227.20
54946;DHT22;40846;44.788;20.486;2024-01-30T21:03:45;102.90;2227.20
54946;DHT22;40846;44.788;20.486;2024-01-30T21:06:13;102.80;2227.20
54946;DHT22;40846;44.788;20.486;2024-01-30T21:08:39;102.70;2227.20
54946;DHT22;40846;44.788;20.486;2024-01-30T21:11:12;102.70;2227.20
54946;DHT22;40846;44.788;20.486;2024-01-30T21:13:38;102.60;2227.20
54946;DHT22;40846;44.788;20.486;2024-01-30T21:16:04;102.60;2227.20
54946;DHT22;40846;44.788;20.486;2024-01-30T21:18:30;102.60;2227.20
54946;DHT22;40846;44.788;20.486;2024-01-30T21:20:57;102.50;2227.20
54946;DHT22;40846;44.788;20.486;2024-01-30T21:23:23;102.40;2227.20
54946;DHT22;40846;44.788;20.486;2024-01-30T21:25:48;102.40;2227.20
54946;DHT22;40846;44.788;20.486;2024-01-30T21:30:43;102.60;2227.20
54946;DHT22;40846;44.788;20.486;2024-01-30T21:42:55;103.00;2227.20
54946;DHT22;40846;44.788;20.486;2024-01-30T21:55:10;102.90;2227.20
54946;DHT22;40846;44.788;20.486;2024-01-30T22:41:30;102.50;2227.20
54946;DHT22;40846;44.788;20.486;2024-01-30T22:43:56;77.60;2227.20
54946;DHT22;40846;44.788;20.486;2024-01-30T22:46:22;77.50;2227.20
54946;DHT22;40846;44.788;20.486;2024-01-30T22:48:48;77.50;2227.20
54946;DHT22;40846;44.788;20.486;2024-01-30T22:51:13;77.40;2227.20
54946;DHT22;40846;44.788;20.486;2024-01-30T22:56:05;77.30;2227.20
54946;DHT22;40846;44.788;20.486;2024-01-30T22:58:31;77.20;2227.20
54946;DHT22;40846;44.788;20.486;2024-01-30T23:03:23;77.20;2227.20
54946;DHT22;40846;44.788;20.486;2024-01-30T23:05:49;77.10;2227.20
54946;DHT22;40846;44.788;20.486;2024-01-30T23:08:14;77.10;2227.20
54946;DHT22;40846;44.788;20.486;2024-01-30T23:10:40;77.00;2227.20
54946;DHT22;40846;44.788;20.486;2024-01-30T23:13:06;77.00;2227.20
54946;DHT22;40846;44.788;20.486;2024-01-30T23:15:32;76.90;2227.20
54946;DHT22;40846;44.788;20.486;2024-01-30T23:17:58;76.90;2227.20
54946;DHT22;40846;44.788;20.486;2024-01-30T23:20:24;76.90;2227.20
54946;DHT22;40846;44.788;20.486;2024-01-30T23:22:50;76.80;2227.20
54946;DHT22;40846;44.788;20.486;2024-01-30T23:25:16;52.10;2227.20
54946;DHT22;40846;44.788;20.486;2024-01-30T23:27:41;77.10;2227.20
